Time;durP1;ratioP1;P1;durP2;ratioP2;P2;SDS_P1;SDS_P2;PMS_P1;PMS_P2;Temp;Humidity;BMP_temperature;BMP_pressure;BME280_temperature;BME280_humidity;BME280_pressure;Samples;Min_cycle;Max_cycle;Signal;HPM_P1;HPM_P2
2023/10/04 00:00:37;;;;;;;18.20;3.15;;;12.20;99.90;;;;;;5024602;28;20524;-61
2023/10/04 00:03:08;;;;;;;14.88;3.03;;;12.20;99.90;;;;;;5023137;28;20049;-61
2023/10/04 00:05:37;;;;;;;10.88;2.60;;;12.20;99.90;;;;;;5003871;28;20233;-60
2023/10/04 00:08:05;;;;;;;13.57;2.83;;;12.20;99.90;;;;;;5005903;28;20067;-60
2023/10/04 00:10:33;;;;;;;13.63;2.83;;;12.30;99.90;;;;;;5022976;28;20056;-61
2023/10/04 00:13:02;;;;;;;10.43;2.75;;;12.30;99.90;;;;;;5019608;28;20045;-60
2023/10/04 00:15:31;;;;;;;14.25;2.30;;;12.20;99.90;;;;;;5022064;28;20069;-60
2023/10/04 00:17:59;;;;;;;6.70;2.20;;;12.30;99.90;;;;;;5023809;28;20053;-61
2023/10/04 00:20:34;;;;;;;10.75;2.22;;;12.20;99.90;;;;;;5023155;28;20054;-60
2023/10/04 00:23:06;;;;;;;10.55;1.85;;;12.20;99.90;;;;;;5018783;28;20685;-61
2023/10/04 00:25:34;;;;;;;10.70;2.25;;;12.20;99.90;;;;;;5043711;28;20683;-59
2023/10/04 00:28:02;;;;;;;12.20;2.40;;;12.20;99.90;;;;;;5035506;28;20591;-59
2023/10/04 00:30:31;;;;;;;11.63;2.42;;;12.20;99.90;;;;;;5032629;28;20408;-60
2023/10/04 00:33:04;;;;;;;;;;;12.20;99.90;;;;;;5021793;28;20053;-60
2023/10/04 00:35:32;;;;;;;10.55;2.35;;;12.10;99.90;;;;;;4987598;28;19921;-61
2023/10/04 00:38:00;;;;;;;13.57;2.88;;;12.20;99.90;;;;;;5007181;28;20065;-61
2023/10/04 00:40:31;;;;;;;10.88;1.95;;;12.10;99.90;;;;;;5023910;28;20053;-60
2023/10/04 00:43:02;;;;;;;16.02;2.40;;;12.10;99.90;;;;;;5021815;28;20041;-61
2023/10/04 00:45:33;;;;;;;10.68;2.15;;;12.00;99.90;;;;;;5022886;28;20054;-59
2023/10/04 00:48:11;;;;;;;13.15;2.58;;;12.10;99.90;;;;;;5028074;28;20049;-59
2023/10/04 00:50:40;;;;;;;24.30;2.85;;;12.00;99.90;;;;;;5040882;28;20049;-60
2023/10/04 00:53:10;;;;;;;15.88;2.45;;;12.00;99.90;;;;;;5031474;28;20057;-59
2023/10/04 00:55:40;;;;;;;16.75;2.25;;;12.00;99.90;;;;;;5017536;28;20046;-59
2023/10/04 00:58:10;;;;;;;16.10;2.70;;;11.90;99.90;;;;;;5011364;28;20048;-60
2023/10/04 01:00:39;;;;;;;17.65;2.38;;;11.90;99.90;;;;;;5016711;28;20045;-61
2023/10/04 01:03:11;;;;;;;11.30;2.22;;;11.90;99.90;;;;;;5024426;28;20269;-60
2023/10/04 01:05:51;;;;;;;11.77;2.80;;;11.80;99.90;;;;;;5030583;28;20113;-61
2023/10/04 01:08:21;;;;;;;11.60;2.17;;;11.80;99.90;;;;;;5044255;28;20042;-61
2023/10/04 01:10:51;;;;;;;12.70;2.50;;;11.80;99.90;;;;;;5045672;28;20418;-61
2023/10/04 01:13:22;;;;;;;14.60;2.40;;;11.80;99.90;;;;;;5029736;28;20045;-62
2023/10/04 01:15:59;;;;;;;15.20;2.72;;;11.70;99.90;;;;;;5024913;28;20053;-61
2023/10/04 01:18:28;;;;;;;8.48;2.50;;;11.70;99.90;;;;;;5062797;28;20046;-62
2023/10/04 01:20:56;;;;;;;14.82;2.53;;;11.70;99.90;;;;;;5023464;28;20041;-60
2023/10/04 01:23:23;;;;;;;17.52;2.90;;;11.70;99.90;;;;;;5031302;28;20417;-61
2023/10/04 01:25:51;;;;;;;15.38;2.67;;;11.70;99.90;;;;;;5041074;28;20046;-61
2023/10/04 01:28:40;;;;;;;16.20;2.38;;;11.60;99.90;;;;;;5034084;28;20045;-60
2023/10/04 01:31:07;;;;;;;10.88;2.55;;;11.60;99.90;;;;;;5024883;28;20042;-61
2023/10/04 01:33:34;;;;;;;10.73;1.75;;;11.60;99.90;;;;;;5011326;28;20482;-61
2023/10/04 01:36:03;;;;;;;15.90;2.83;;;11.60;99.90;;;;;;5018201;28;20056;-60
2023/10/04 01:38:32;;;;;;;12.93;3.13;;;11.50;99.90;;;;;;5038803;28;20437;-61
2023/10/04 01:41:00;;;;;;;18.83;2.97;;;11.60;99.90;;;;;;5052840;28;20048;-62
2023/10/04 01:43:27;;;;;;;16.17;2.72;;;11.60;99.90;;;;;;5041909;28;20511;-61
2023/10/04 01:45:59;;;;;;;14.60;2.70;;;11.60;99.90;;;;;;5024657;28;20041;-59
2023/10/04 01:48:35;;;;;;;11.85;2.85;;;11.60;99.90;;;;;;5012029;28;20470;-60
2023/10/04 01:51:04;;;;;;;13.85;2.78;;;11.60;99.90;;;;;;5014762;28;20113;-59
2023/10/04 01:53:34;;;;;;;13.30;3.13;;;11.70;99.90;;;;;;5024131;28;20065;-59
2023/10/04 01:56:04;;;;;;;13.80;2.30;;;11.60;99.90;;;;;;5036067;28;20307;-59
2023/10/04 01:58:32;;;;;;;10.68;2.38;;;11.70;99.90;;;;;;5014821;28;20049;-59
2023/10/04 02:01:00;;;;;;;10.45;2.20;;;11.70;99.90;;;;;;5061877;28;20442;-59
2023/10/04 02:03:29;;;;;;;13.43;2.50;;;11.60;99.90;;;;;;5016995;28;20042;-59
2023/10/04 02:05:57;;;;;;;15.25;2.58;;;11.60;99.90;;;;;;5014307;28;20064;-61
2023/10/04 02:08:26;;;;;;;12.55;2.33;;;11.70;99.90;;;;;;5031181;28;20060;-61
2023/10/04 02:10:55;;;;;;;9.95;2.38;;;11.60;99.90;;;;;;5033337;28;20045;-61
2023/10/04 02:13:25;;;;;;;15.63;2.93;;;11.60;99.90;;;;;;5031909;28;20374;-61
2023/10/04 02:15:54;;;;;;;15.35;2.22;;;11.60;99.90;;;;;;5032034;28;20041;-61
2023/10/04 02:18:22;;;;;;;14.23;2.05;;;11.60;99.90;;;;;;5027089;28;20041;-61
2023/10/04 02:20:53;;;;;;;22.90;2.90;;;11.60;99.90;;;;;;5012198;28;20050;-61
2023/10/04 02:23:21;;;;;;;14.45;2.30;;;11.60;99.90;;;;;;5031640;28;20045;-62
2023/10/04 02:25:49;;;;;;;15.80;2.78;;;11.60;99.90;;;;;;5030928;28;20512;-61
2023/10/04 02:28:23;;;;;;;8.10;2.35;;;11.60;99.90;;;;;;5033164;28;20045;-61
2023/10/04 02:30:55;;;;;;;11.95;2.28;;;11.60;99.90;;;;;;5012537;28;20054;-62
2023/10/04 02:33:38;;;;;;;16.30;2.65;;;11.50;99.90;;;;;;5013445;28;20399;-62
2023/10/04 02:36:07;;;;;;;16.20;2.58;;;11.50;99.90;;;;;;5031292;28;20037;-61
2023/10/04 02:38:37;;;;;;;11.52;2.00;;;11.50;99.90;;;;;;5032977;28;20052;-61
2023/10/04 02:41:06;;;;;;;11.77;2.35;;;11.40;99.90;;;;;;5031683;28;20137;-59
2023/10/04 02:43:36;;;;;;;8.23;2.40;;;11.40;99.90;;;;;;5031038;28;20048;-60
2023/10/04 02:46:05;;;;;;;9.15;1.98;;;11.40;99.90;;;;;;5031678;28;20068;-60
2023/10/04 02:48:35;;;;;;;6.77;2.00;;;11.40;99.90;;;;;;5031234;28;20057;-60
2023/10/04 02:51:04;;;;;;;11.73;2.13;;;11.30;99.90;;;;;;5031234;28;20052;-59
2023/10/04 02:53:32;;;;;;;9.02;1.80;;;11.30;99.90;;;;;;5011810;28;20050;-59
2023/10/04 02:56:07;;;;;;;11.73;2.53;;;11.30;99.90;;;;;;5049953;28;20041;-59
2023/10/04 02:58:47;;;;;;;9.48;1.83;;;11.40;99.90;;;;;;5027854;28;20065;-59
2023/10/04 03:01:26;;;;;;;;;;;11.30;99.90;;;;;;5045048;28;20049;-59
2023/10/04 03:03:55;;;;;;;12.65;1.98;;;11.40;99.90;;;;;;5011152;28;19921;-59
2023/10/04 03:06:26;;;;;;;12.60;2.22;;;11.40;99.90;;;;;;5027685;28;20042;-59
2023/10/04 03:08:57;;;;;;;11.25;2.42;;;11.50;99.90;;;;;;5011527;28;20046;-59
2023/10/04 03:11:27;;;;;;;8.45;1.70;;;11.40;99.90;;;;;;5025490;28;20046;-59
2023/10/04 03:13:59;;;;;;;;;;;11.40;99.90;;;;;;5042812;28;20115;-59
2023/10/04 03:16:27;;;;;;;7.55;1.30;;;11.40;99.90;;;;;;5050889;28;19940;-59
2023/10/04 03:18:55;;;;;;;9.32;1.75;;;11.40;99.90;;;;;;5024414;28;20405;-59
2023/10/04 03:21:26;;;;;;;10.60;2.22;;;11.40;99.90;;;;;;5031876;28;20045;-58
2023/10/04 03:23:55;;;;;;;11.05;2.22;;;11.40;99.90;;;;;;5030569;28;20481;-59
2023/10/04 03:26:23;;;;;;;6.15;1.48;;;11.40;99.90;;;;;;5011081;28;20057;-59
2023/10/04 03:28:55;;;;;;;10.93;1.90;;;11.30;99.90;;;;;;5044563;28;20053;-59
2023/10/04 03:31:27;;;;;;;7.22;2.03;;;11.30;99.90;;;;;;5031432;28;20040;-59
2023/10/04 03:33:59;;;;;;;10.10;1.70;;;11.30;99.90;;;;;;5030925;28;20045;-60
2023/10/04 03:36:29;;;;;;;11.80;1.85;;;11.30;99.90;;;;;;5030521;28;20068;-61
2023/10/04 03:39:03;;;;;;;11.07;2.13;;;11.30;99.90;;;;;;5030552;28;20049;-60
2023/10/04 03:41:35;;;;;;;9.02;1.80;;;11.30;99.90;;;;;;5002684;28;20396;-60
2023/10/04 03:44:09;;;;;;;8.82;1.65;;;11.30;99.90;;;;;;5028620;28;20661;-61
2023/10/04 03:46:38;;;;;;;10.23;1.93;;;11.30;99.90;;;;;;5061665;28;20056;-61
2023/10/04 03:49:07;;;;;;;7.37;1.53;;;11.40;99.90;;;;;;5063662;28;20065;-60
2023/10/04 03:51:34;;;;;;;6.45;2.10;;;11.40;99.90;;;;;;5010612;28;20057;-61
2023/10/04 03:54:07;;;;;;;10.38;2.35;;;11.50;99.90;;;;;;5012772;28;20037;-60
2023/10/04 03:56:41;;;;;;;5.90;1.63;;;11.50;99.90;;;;;;5028828;28;20049;-61
2023/10/04 03:59:09;;;;;;;7.15;1.50;;;11.50;99.90;;;;;;5063439;28;20056;-62
2023/10/04 04:01:37;;;;;;;5.03;1.42;;;11.60;99.90;;;;;;5031411;28;20056;-61
2023/10/04 04:04:14;;;;;;;6.50;1.63;;;11.60;99.90;;;;;;5030246;28;20037;-60
2023/10/04 04:06:43;;;;;;;9.70;1.90;;;11.60;99.90;;;;;;5031320;28;20037;-61
2023/10/04 04:09:12;;;;;;;6.57;1.42;;;11.60;99.90;;;;;;5029040;28;20049;-61
2023/10/04 04:11:40;;;;;;;6.75;1.35;;;11.60;99.90;;;;;;5046777;28;20114;-61
2023/10/04 04:14:08;;;;;;;7.93;1.50;;;11.60;99.90;;;;;;5027743;28;20045;-61
2023/10/04 04:16:37;;;;;;;4.20;1.15;;;11.60;99.90;;;;;;5052615;28;20046;-61
2023/10/04 04:19:08;;;;;;;6.10;1.33;;;11.50;99.90;;;;;;5024668;28;20049;-61
2023/10/04 04:21:36;;;;;;;;;;;11.50;99.90;;;;;;5029200;28;20045;-61
2023/10/04 04:24:04;;;;;;;10.43;1.35;;;11.40;99.90;;;;;;5018523;28;19921;-61
2023/10/04 04:26:33;;;;;;;6.00;1.10;;;11.40;99.90;;;;;;5050136;28;20489;-61
2023/10/04 04:29:04;;;;;;;4.10;1.20;;;11.40;99.90;;;;;;5023901;28;20045;-60
2023/10/04 04:31:34;;;;;;;8.52;1.17;;;11.40;99.90;;;;;;5029926;28;20061;-60
2023/10/04 04:34:07;;;;;;;4.88;1.30;;;11.40;99.90;;;;;;5025880;28;20513;-60
2023/10/04 04:36:36;;;;;;;10.98;0.90;;;11.40;99.90;;;;;;5047064;28;20064;-61
2023/10/04 04:39:09;;;;;;;6.63;1.23;;;11.40;99.90;;;;;;5029765;28;20045;-61
2023/10/04 04:41:39;;;;;;;5.45;1.15;;;11.40;99.90;;;;;;5025869;28;20057;-60
2023/10/04 04:44:19;;;;;;;6.07;0.85;;;11.50;99.90;;;;;;5029838;28;20057;-61
2023/10/04 04:46:48;;;;;;;6.40;1.85;;;11.50;99.90;;;;;;5031067;28;20053;-60
2023/10/04 04:49:17;;;;;;;3.35;0.95;;;11.60;99.90;;;;;;5006989;28;20071;-61
2023/10/04 04:51:45;;;;;;;5.03;1.08;;;11.60;99.90;;;;;;5047372;28;20045;-61
2023/10/04 04:54:13;;;;;;;4.63;1.17;;;11.70;99.90;;;;;;5026193;28;20041;-62
2023/10/04 04:56:41;;;;;;;10.63;1.77;;;11.70;99.90;;;;;;4995863;28;20053;-61
2023/10/04 04:59:14;;;;;;;2.35;0.90;;;11.70;99.90;;;;;;5029297;28;20042;-61
2023/10/04 05:01:42;;;;;;;5.32;1.05;;;11.80;99.90;;;;;;5022390;28;20052;-62
2023/10/04 05:04:11;;;;;;;6.88;1.02;;;11.80;99.90;;;;;;5004515;28;20058;-60
2023/10/04 05:06:39;;;;;;;4.72;1.13;;;11.80;99.90;;;;;;5016138;28;20049;-60
2023/10/04 05:09:10;;;;;;;4.60;0.80;;;11.90;99.90;;;;;;5020544;28;20229;-60
2023/10/04 05:11:38;;;;;;;4.03;1.13;;;11.90;99.90;;;;;;5024586;28;20049;-61
2023/10/04 05:14:10;;;;;;;14.07;1.25;;;11.90;99.90;;;;;;5024207;28;20042;-62
2023/10/04 05:16:38;;;;;;;9.05;0.93;;;11.90;99.90;;;;;;5025667;28;20603;-61
2023/10/04 05:19:11;;;;;;;7.38;1.23;;;11.90;99.90;;;;;;5032582;28;20046;-59
2023/10/04 05:21:38;;;;;;;15.18;1.52;;;11.90;99.90;;;;;;5020578;28;20535;-61
2023/10/04 05:24:07;;;;;;;6.55;1.10;;;11.90;99.90;;;;;;5003906;28;20049;-59
2023/10/04 05:26:37;;;;;;;8.55;1.30;;;11.90;99.90;;;;;;5004867;28;20773;-60
2023/10/04 05:29:05;;;;;;;7.65;2.28;;;12.00;99.90;;;;;;5027742;28;20049;-61
2023/10/04 05:31:33;;;;;;;6.05;1.05;;;11.90;99.90;;;;;;5027418;28;20052;-59
2023/10/04 05:34:03;;;;;;;8.00;1.30;;;11.90;99.90;;;;;;5050480;28;20049;-60
2023/10/04 05:36:34;;;;;;;5.85;0.95;;;11.90;99.90;;;;;;5026778;28;20041;-61
2023/10/04 05:39:03;;;;;;;5.53;0.88;;;11.90;99.90;;;;;;5042535;28;20419;-61
2023/10/04 05:41:31;;;;;;;10.48;1.00;;;11.80;99.90;;;;;;5026285;28;20432;-60
2023/10/04 05:43:59;;;;;;;10.10;1.52;;;11.80;99.90;;;;;;5026720;28;20069;-62
2023/10/04 05:46:28;;;;;;;11.80;1.40;;;11.70;99.90;;;;;;5023807;28;20405;-61
2023/10/04 05:48:56;;;;;;;7.03;1.70;;;11.70;99.90;;;;;;5040629;28;20053;-59
2023/10/04 05:51:24;;;;;;;12.02;1.83;;;11.60;99.90;;;;;;5022822;28;20627;-59
2023/10/04 05:53:53;;;;;;;8.30;1.88;;;11.60;99.90;;;;;;5013866;28;20042;-59
2023/10/04 05:56:21;;;;;;;9.23;1.13;;;11.50;99.90;;;;;;5019698;28;20144;-59
2023/10/04 05:58:49;;;;;;;8.18;2.03;;;11.50;99.90;;;;;;5036263;28;20060;-59
2023/10/04 06:01:19;;;;;;;8.45;1.33;;;11.50;99.90;;;;;;5023710;28;20046;-60
2023/10/04 06:03:46;;;;;;;10.57;1.25;;;11.50;99.90;;;;;;5016167;28;20061;-59
2023/10/04 06:06:15;;;;;;;7.55;1.40;;;11.50;99.90;;;;;;5009860;28;20057;-59
2023/10/04 06:08:45;;;;;;;11.05;1.70;;;11.50;99.90;;;;;;5019471;28;20042;-60
2023/10/04 06:11:14;;;;;;;9.27;1.30;;;11.50;99.90;;;;;;5026045;28;20477;-59
2023/10/04 06:13:42;;;;;;;6.55;0.85;;;11.50;99.90;;;;;;5026879;28;20052;-59
2023/10/04 06:16:09;;;;;;;10.65;1.40;;;11.50;99.90;;;;;;5028776;28;20046;-61
2023/10/04 06:18:37;;;;;;;6.80;1.23;;;11.50;99.90;;;;;;5040631;28;20057;-61
2023/10/04 06:21:09;;;;;;;8.95;1.13;;;11.50;99.90;;;;;;5026201;28;20408;-60
2023/10/04 06:23:37;;;;;;;8.07;1.05;;;11.50;99.90;;;;;;5021587;28;20056;-60
2023/10/04 06:26:05;;;;;;;5.22;1.17;;;11.50;99.90;;;;;;5020126;28;20038;-60
2023/10/04 06:28:33;;;;;;;5.00;1.42;;;11.50;99.90;;;;;;5026873;28;20060;-61
2023/10/04 06:31:02;;;;;;;8.52;1.30;;;11.40;99.90;;;;;;5043440;28;20505;-60
2023/10/04 06:33:31;;;;;;;;;;;11.50;99.90;;;;;;5030668;28;20129;-61
2023/10/04 06:35:58;;;;;;;9.35;1.48;;;11.50;99.90;;;;;;5018408;28;19922;-61
2023/10/04 06:38:26;;;;;;;9.10;1.75;;;11.50;99.90;;;;;;5027512;28;20451;-61
2023/10/04 06:40:54;;;;;;;7.47;1.30;;;11.50;99.90;;;;;;5043089;28;20049;-60
2023/10/04 06:43:22;;;;;;;10.60;1.85;;;11.50;99.90;;;;;;5019802;28;20245;-60
2023/10/04 06:45:49;;;;;;;10.63;1.60;;;11.50;99.90;;;;;;5025502;28;20505;-62
2023/10/04 06:48:18;;;;;;;6.10;1.52;;;11.50;99.90;;;;;;5031853;28;20053;-60
2023/10/04 06:50:49;;;;;;;8.13;1.50;;;11.60;99.90;;;;;;5027245;28;20041;-60
2023/10/04 06:53:17;;;;;;;9.98;1.88;;;11.60;99.90;;;;;;5027502;28;20045;-61
2023/10/04 06:55:45;;;;;;;12.27;1.58;;;11.60;99.90;;;;;;5029060;28;20049;-61
2023/10/04 06:58:13;;;;;;;7.85;1.38;;;11.60;99.90;;;;;;5036510;28;20060;-60
2023/10/04 07:00:41;;;;;;;9.25;1.73;;;11.60;99.90;;;;;;5048460;28;20045;-61
2023/10/04 07:03:10;;;;;;;10.63;1.98;;;11.60;99.90;;;;;;5033569;28;20058;-61
2023/10/04 07:05:40;;;;;;;11.13;1.58;;;11.70;99.90;;;;;;5025626;28;20496;-61
2023/10/04 07:08:12;;;;;;;;;;;11.70;99.90;;;;;;5033257;28;20068;-61
2023/10/04 07:10:42;;;;;;;11.02;1.38;;;11.70;99.90;;;;;;5044541;28;20605;-61
2023/10/04 07:13:10;;;;;;;9.95;1.48;;;11.70;99.90;;;;;;5030592;28;20057;-61
2023/10/04 07:15:42;;;;;;;7.88;1.00;;;11.60;99.90;;;;;;5045612;28;20048;-62
2023/10/04 07:18:12;;;;;;;10.98;1.85;;;11.70;99.90;;;;;;5036734;28;20050;-60
2023/10/04 07:20:41;;;;;;;8.32;1.58;;;11.70;99.90;;;;;;5027480;28;20042;-61
2023/10/04 07:23:10;;;;;;;6.47;1.40;;;11.70;99.90;;;;;;5026989;28;20531;-61
2023/10/04 07:25:49;;;;;;;7.15;1.25;;;11.70;99.90;;;;;;5024962;28;20048;-62
2023/10/04 07:28:17;;;;;;;12.98;1.80;;;11.80;99.90;;;;;;5032592;28;20582;-61
2023/10/04 07:30:45;;;;;;;5.45;1.30;;;11.80;99.90;;;;;;5035494;28;20053;-61
2023/10/04 07:33:13;;;;;;;6.65;1.50;;;11.80;99.90;;;;;;5022551;28;20054;-61
2023/10/04 07:35:41;;;;;;;10.05;1.63;;;11.90;99.90;;;;;;5007876;28;20049;-61
2023/10/04 07:38:08;;;;;;;6.80;1.40;;;11.80;99.90;;;;;;5015219;28;20076;-60
2023/10/04 07:40:37;;;;;;;6.10;1.30;;;11.90;99.90;;;;;;5028154;28;20405;-61
2023/10/04 07:43:07;;;;;;;8.20;1.38;;;11.90;99.90;;;;;;5033891;28;20038;-61
2023/10/04 07:45:35;;;;;;;6.82;1.80;;;12.00;99.90;;;;;;5028037;28;20049;-60
2023/10/04 07:48:03;;;;;;;7.30;1.85;;;12.00;99.90;;;;;;5034232;28;20056;-61
2023/10/04 07:50:31;;;;;;;10.30;2.30;;;12.10;99.90;;;;;;5046459;28;20045;-61
2023/10/04 07:53:04;;;;;;;12.43;2.95;;;12.10;99.90;;;;;;5027371;28;20326;-62
2023/10/04 07:55:34;;;;;;;8.60;1.65;;;12.10;99.90;;;;;;5028681;28;20064;-61
2023/10/04 07:58:06;;;;;;;11.32;1.98;;;12.20;99.90;;;;;;5028684;28;20049;-61
2023/10/04 08:00:36;;;;;;;11.07;1.73;;;12.20;99.90;;;;;;5028139;28;20060;-60
2023/10/04 08:03:06;;;;;;;9.65;1.85;;;12.30;99.90;;;;;;5028342;28;20529;-60
2023/10/04 08:05:38;;;;;;;11.38;2.47;;;12.30;99.90;;;;;;5026489;28;20045;-60
2023/10/04 08:08:06;;;;;;;12.63;2.45;;;12.40;99.90;;;;;;5025211;28;20551;-61
2023/10/04 08:10:37;;;;;;;8.05;1.90;;;12.50;99.90;;;;;;5047886;28;20052;-61
2023/10/04 08:13:05;;;;;;;9.00;2.63;;;12.50;99.90;;;;;;5032296;28;20057;-61
2023/10/04 08:15:37;;;;;;;6.40;1.95;;;12.60;99.90;;;;;;5027730;28;20049;-60
2023/10/04 08:18:06;;;;;;;13.13;2.28;;;12.60;99.90;;;;;;5026364;28;20064;-60
2023/10/04 08:20:36;;;;;;;10.73;2.20;;;12.70;99.90;;;;;;5027888;28;20045;-60
2023/10/04 08:23:05;;;;;;;10.40;2.40;;;12.70;99.90;;;;;;5037028;28;20407;-59
2023/10/04 08:25:34;;;;;;;16.15;2.63;;;12.80;99.90;;;;;;5044548;28;20037;-59
2023/10/04 08:28:06;;;;;;;14.07;3.38;;;12.90;99.90;;;;;;5033586;28;20068;-60
2023/10/04 08:30:37;;;;;;;12.38;2.83;;;12.90;99.90;;;;;;5047789;28;20049;-59
2023/10/04 08:33:05;;;;;;;13.15;2.20;;;13.00;99.90;;;;;;5037158;28;20497;-60
2023/10/04 08:35:34;;;;;;;12.32;2.63;;;13.00;99.90;;;;;;5028296;28;20052;-60
2023/10/04 08:38:05;;;;;;;8.60;2.47;;;13.10;99.90;;;;;;5031635;28;20048;-62
2023/10/04 08:40:42;;;;;;;10.85;2.60;;;13.20;99.90;;;;;;5040097;28;20069;-62
2023/10/04 08:43:10;;;;;;;13.68;2.50;;;13.20;99.90;;;;;;5025741;28;20056;-61
2023/10/04 08:45:37;;;;;;;12.52;3.20;;;13.30;99.90;;;;;;5009925;28;20054;-61
2023/10/04 08:48:07;;;;;;;12.52;2.20;;;13.30;99.90;;;;;;5027122;28;20040;-60
2023/10/04 08:50:41;;;;;;;10.93;2.07;;;13.40;99.90;;;;;;5027637;28;20214;-61
2023/10/04 08:53:34;;;;;;;10.40;2.65;;;13.40;99.90;;;;;;5030795;28;20048;-62
2023/10/04 08:56:09;;;;;;;13.15;2.78;;;13.50;99.90;;;;;;5027722;28;20065;-61
2023/10/04 08:58:38;;;;;;;11.55;2.70;;;13.50;99.90;;;;;;5027163;28;20052;-63
2023/10/04 09:01:06;;;;;;;12.32;2.80;;;13.50;99.90;;;;;;5027655;28;20053;-61
2023/10/04 09:03:40;;;;;;;10.98;2.78;;;13.60;99.90;;;;;;5029954;28;20056;-61
2023/10/04 09:06:11;;;;;;;14.20;2.92;;;13.70;99.90;;;;;;5031346;28;20107;-61
2023/10/04 09:08:40;;;;;;;14.00;2.78;;;13.80;99.90;;;;;;5026252;28;20061;-61
2023/10/04 09:11:12;;;;;;;8.52;2.30;;;13.90;99.90;;;;;;5031172;28;20105;-61
2023/10/04 09:13:47;;;;;;;9.45;2.63;;;14.00;99.90;;;;;;5028387;28;20054;-61
2023/10/04 09:16:24;;;;;;;12.57;2.70;;;14.10;99.90;;;;;;5031386;28;20056;-60
2023/10/04 09:19:17;;;;;;;12.88;2.70;;;14.20;99.90;;;;;;5036259;28;20048;-62
2023/10/04 09:21:50;;;;;;;12.07;2.83;;;14.30;99.90;;;;;;5050865;28;20045;-59
2023/10/04 09:24:18;;;;;;;9.88;2.28;;;14.40;99.90;;;;;;5030298;28;20606;-61
2023/10/04 09:26:49;;;;;;;11.10;2.53;;;14.50;99.90;;;;;;5030168;28;20056;-61
2023/10/04 09:29:47;;;;;;;7.78;2.10;;;14.60;99.90;;;;;;5046036;28;20052;-61
2023/10/04 09:32:35;;;;;;;12.60;3.75;;;14.70;99.90;;;;;;5047053;28;20049;-60
2023/10/04 09:35:03;;;;;;;10.32;2.20;;;14.80;99.90;;;;;;5030718;28;20050;-61
2023/10/04 09:37:31;;;;;;;9.23;2.38;;;14.90;99.90;;;;;;5029716;28;20045;-61
2023/10/04 09:40:10;;;;;;;10.95;2.88;;;14.90;99.90;;;;;;5050658;28;20041;-61
2023/10/04 09:42:53;;;;;;;12.50;2.47;;;14.90;99.90;;;;;;5046712;28;20052;-61
2023/10/04 09:45:24;;;;;;;16.50;2.95;;;14.90;99.90;;;;;;5050376;28;20488;-60
2023/10/04 09:47:53;;;;;;;11.00;2.42;;;14.80;99.90;;;;;;5047995;28;20388;-61
2023/10/04 09:50:26;;;;;;;13.18;2.67;;;14.90;99.90;;;;;;5049043;28;20052;-60
2023/10/04 09:52:54;;;;;;;12.85;2.80;;;14.90;99.90;;;;;;5039348;28;20050;-61
2023/10/04 09:55:25;;;;;;;8.77;2.97;;;15.00;99.90;;;;;;5031292;28;20041;-61
2023/10/04 09:57:55;;;;;;;7.93;2.55;;;15.10;99.90;;;;;;5029815;28;20041;-61
2023/10/04 10:00:25;;;;;;;12.50;2.25;;;15.10;99.90;;;;;;5025429;28;20045;-63
2023/10/04 10:02:54;;;;;;;8.73;2.90;;;15.20;99.90;;;;;;5023195;28;20042;-60
2023/10/04 10:05:27;;;;;;;13.35;2.70;;;15.20;99.90;;;;;;5025399;28;20053;-61
2023/10/04 10:08:04;;;;;;;8.05;1.98;;;15.30;99.90;;;;;;5024347;28;20041;-61
2023/10/04 10:10:41;;;;;;;11.73;2.45;;;15.30;99.90;;;;;;5028773;28;20049;-62
2023/10/04 10:13:09;;;;;;;11.73;2.13;;;15.30;99.90;;;;;;5035933;28;20060;-62
2023/10/04 10:15:37;;;;;;;11.65;2.30;;;15.20;99.90;;;;;;5049902;28;20469;-62
2023/10/04 10:18:10;;;;;;;14.93;3.05;;;15.20;99.90;;;;;;5042844;28;20046;-62
2023/10/04 10:20:39;;;;;;;8.95;2.47;;;15.20;99.90;;;;;;5030104;28;20049;-61
2023/10/04 10:23:07;;;;;;;14.40;2.50;;;15.20;99.90;;;;;;5024338;28;20045;-63
2023/10/04 10:25:37;;;;;;;10.10;2.67;;;15.20;99.90;;;;;;5010344;28;20379;-63
2023/10/04 10:28:09;;;;;;;;;;;15.20;99.90;;;;;;5016161;28;20045;-61
2023/10/04 10:30:37;;;;;;;11.30;2.42;;;15.30;99.90;;;;;;5029911;28;19925;-61
2023/10/04 10:33:06;;;;;;;10.02;1.95;;;15.40;99.90;;;;;;5029398;28;20421;-62
2023/10/04 10:35:48;;;;;;;13.65;2.30;;;15.40;99.90;;;;;;5029774;28;20045;-61
2023/10/04 10:38:41;;;;;;;14.25;2.72;;;15.50;99.90;;;;;;5024259;28;20053;-62
2023/10/04 10:41:27;;;;;;;12.38;2.38;;;15.60;99.90;;;;;;5008627;28;20057;-62
2023/10/04 10:44:16;;;;;;;8.82;2.40;;;15.70;99.90;;;;;;5026534;28;20072;-62
2023/10/04 10:46:57;;;;;;;10.00;2.63;;;15.60;99.90;;;;;;5017369;28;20046;-61
2023/10/04 10:49:48;;;;;;;15.10;2.30;;;15.60;99.90;;;;;;5025977;28;20060;-62
2023/10/04 10:52:27;;;;;;;9.20;2.50;;;15.50;99.90;;;;;;5025861;28;20061;-60
2023/10/04 10:54:57;;;;;;;8.47;2.30;;;15.40;99.90;;;;;;5010722;28;20045;-61
2023/10/04 10:57:29;;;;;;;9.43;2.00;;;15.40;99.90;;;;;;5009502;28;20310;-61
2023/10/04 11:00:07;;;;;;;8.68;2.17;;;15.40;99.90;;;;;;5009233;28;20057;-60
2023/10/04 11:02:35;;;;;;;8.55;2.60;;;15.40;99.90;;;;;;5014846;28;20056;-60
2023/10/04 11:05:06;;;;;;;10.65;2.30;;;15.40;99.90;;;;;;5029115;28;20053;-60
2023/10/04 11:07:34;;;;;;;;;;;15.50;99.90;;;;;;5028522;28;20392;-60
2023/10/04 11:10:03;;;;;;;8.32;2.50;;;15.50;99.90;;;;;;5010763;28;19928;-61
2023/10/04 11:12:37;;;;;;;10.10;2.13;;;15.40;99.90;;;;;;5012817;28;20041;-62
2023/10/04 11:15:06;;;;;;;7.05;1.90;;;15.50;99.90;;;;;;5026641;28;20057;-62
2023/10/04 11:17:37;;;;;;;7.78;2.78;;;15.50;99.90;;;;;;5028283;28;20068;-61
2023/10/04 11:20:10;;;;;;;8.30;2.70;;;15.50;99.90;;;;;;5027554;28;20072;-61
2023/10/04 11:22:43;;;;;;;11.10;2.10;;;15.60;99.90;;;;;;5029671;28;20041;-61
2023/10/04 11:25:13;;;;;;;6.72;2.20;;;15.70;99.90;;;;;;5012478;28;20049;-62
2023/10/04 11:27:43;;;;;;;13.27;3.05;;;15.90;99.90;;;;;;5029535;28;20045;-62
2023/10/04 11:30:23;;;;;;;11.47;2.20;;;16.00;99.90;;;;;;5028580;28;20049;-61
2023/10/04 11:32:52;;;;;;;10.32;3.00;;;16.10;99.90;;;;;;5027024;28;20049;-62
2023/10/04 11:35:20;;;;;;;11.88;2.75;;;16.20;99.90;;;;;;5028653;28;20052;-62
2023/10/04 11:37:49;;;;;;;10.88;2.42;;;16.30;99.90;;;;;;5028600;28;20049;-61
2023/10/04 11:40:19;;;;;;;9.32;2.38;;;16.60;99.90;;;;;;5010421;28;20050;-60
2023/10/04 11:42:58;;;;;;;8.05;2.10;;;16.90;99.90;;;;;;5015532;28;20521;-61
2023/10/04 11:45:27;;;;;;;17.65;3.42;;;17.30;99.90;;;;;;5026677;28;20056;-62
2023/10/04 11:48:07;;;;;;;10.13;2.33;;;17.50;99.90;;;;;;5027948;28;20052;-63
2023/10/04 11:50:45;;;;;;;;;;;17.50;99.90;;;;;;5028800;28;20142;-62
2023/10/04 11:53:14;;;;;;;9.88;2.70;;;17.40;99.90;;;;;;5026726;28;19948;-61
2023/10/04 11:55:42;;;;;;;12.90;2.65;;;17.40;99.90;;;;;;5009073;28;20054;-62
2023/10/04 11:58:11;;;;;;;11.57;2.30;;;17.30;99.90;;;;;;5019294;28;20405;-62
2023/10/04 12:00:39;;;;;;;9.80;2.90;;;17.30;99.90;;;;;;5032738;28;20049;-60
2023/10/04 12:03:10;;;;;;;12.05;2.78;;;17.30;99.90;;;;;;5036688;28;20048;-62
2023/10/04 12:05:38;;;;;;;11.05;2.75;;;17.30;99.90;;;;;;5048065;28;20048;-59
2023/10/04 12:08:06;;;;;;;10.95;2.63;;;17.30;99.90;;;;;;5046652;28;20045;-60
2023/10/04 12:10:39;;;;;;;9.43;2.50;;;17.30;99.90;;;;;;5013318;28;20508;-61
2023/10/04 12:13:06;;;;;;;13.13;2.92;;;17.40;99.90;;;;;;5022497;28;20045;-60
2023/10/04 12:15:34;;;;;;;8.40;2.42;;;17.50;99.90;;;;;;5044093;28;20052;-61
2023/10/04 12:18:02;;;;;;;12.75;3.75;;;17.50;99.90;;;;;;5047720;28;20064;-61
2023/10/04 12:20:35;;;;;;;13.05;3.22;;;17.70;99.90;;;;;;5044028;28;20718;-62
2023/10/04 12:23:03;;;;;;;12.70;2.75;;;18.10;99.90;;;;;;5047479;28;20428;-63
2023/10/04 12:25:31;;;;;;;9.43;2.45;;;18.40;99.90;;;;;;5021598;28;20336;-63
2023/10/04 12:28:02;;;;;;;18.65;2.42;;;18.40;99.90;;;;;;5031518;28;20043;-63
2023/10/04 12:30:31;;;;;;;11.38;2.33;;;18.30;99.90;;;;;;5029193;28;20060;-62
2023/10/04 12:33:00;;;;;;;13.10;2.22;;;18.10;99.90;;;;;;5027841;28;20053;-62
2023/10/04 12:35:28;;;;;;;6.65;1.92;;;17.90;99.90;;;;;;5027335;28;20052;-62
2023/10/04 12:37:56;;;;;;;10.18;2.58;;;17.90;99.90;;;;;;5034621;28;20049;-62
2023/10/04 12:40:23;;;;;;;10.70;2.28;;;18.00;99.90;;;;;;5032204;28;20081;-62
2023/10/04 12:42:52;;;;;;;7.00;2.05;;;18.30;99.90;;;;;;5031102;28;20493;-61
2023/10/04 12:45:21;;;;;;;8.15;2.65;;;18.70;99.90;;;;;;5031265;28;20048;-62
2023/10/04 12:47:49;;;;;;;7.68;2.13;;;18.90;99.90;;;;;;5031394;28;20053;-61
2023/10/04 12:50:17;;;;;;;9.25;2.10;;;19.10;99.90;;;;;;5031627;28;20049;-61
2023/10/04 12:52:45;;;;;;;10.73;2.10;;;19.40;99.90;;;;;;5038146;28;20041;-62
2023/10/04 12:55:14;;;;;;;6.88;1.88;;;19.80;99.90;;;;;;5028024;28;20053;-62
2023/10/04 12:57:43;;;;;;;10.45;2.38;;;20.10;99.90;;;;;;5032916;28;20485;-62
2023/10/04 13:00:15;;;;;;;7.88;2.53;;;20.20;99.90;;;;;;5051373;28;20504;-61